createdAt,value
2018-04-09T00:00:44.948Z,20.7
2018-04-09T00:10:44.494Z,20.7
2018-04-09T00:20:43.925Z,20.7
2018-04-09T00:30:42.949Z,20.7
2018-04-09T00:40:41.982Z,20.8
2018-04-09T00:50:41.743Z,20.7
2018-04-09T01:00:40.180Z,20.7
2018-04-09T01:10:39.401Z,20.7
2018-04-09T01:20:38.971Z,20.7
2018-04-09T01:30:38.022Z,20.6
2018-04-09T01:40:37.837Z,20.6
2018-04-09T01:50:36.499Z,20.6
2018-04-09T02:00:35.437Z,20.6
2018-04-09T02:10:34.848Z,20.6
2018-04-09T02:20:34.131Z,20.6
2018-04-09T02:30:33.423Z,20.6
2018-04-09T02:40:32.752Z,20.6
2018-04-09T02:50:31.777Z,20.6
2018-04-09T03:00:30.832Z,20.5
2018-04-09T03:10:30.494Z,20.5
2018-04-09T03:20:29.542Z,20.4
2018-04-09T03:30:28.549Z,20.5
2018-04-09T03:40:28.139Z,20.4
2018-04-09T03:50:26.657Z,20.4
2018-04-09T04:00:26.286Z,20.4
2018-04-09T04:10:25.529Z,20.4
2018-04-09T04:20:24.981Z,20.4
2018-04-09T04:30:23.710Z,20.4
2018-04-09T04:40:22.824Z,20.4
2018-04-09T04:50:22.455Z,20.4
2018-04-09T05:00:21.605Z,20.5
2018-04-09T05:10:20.857Z,20.6
2018-04-09T05:20:20.076Z,20.7
2018-04-09T05:30:18.896Z,20.8
2018-04-09T05:40:18.018Z,20.9
2018-04-09T05:50:17.968Z,20
2018-04-09T06:00:16.308Z,19.9
2018-04-09T06:10:16.137Z,20.2
2018-04-09T06:20:15.151Z,20.6
2018-04-09T06:30:14.619Z,20.8
2018-04-09T06:40:13.479Z,20.8
2018-04-09T06:50:12.820Z,20.9
2018-04-09T07:00:12.238Z,21.3
2018-04-09T07:10:11.831Z,21.6
2018-04-09T07:20:10.438Z,21.8
2018-04-09T07:30:09.236Z,22
2018-04-09T07:40:08.838Z,22.2
2018-04-09T07:50:08.154Z,22.4
2018-04-09T08:00:07.251Z,22.6
2018-04-09T08:10:06.391Z,22.6
2018-04-09T08:20:05.475Z,22.8
2018-04-09T08:30:05.208Z,22.8
2018-04-09T08:40:04.416Z,22.9
2018-04-09T08:50:03.031Z,22.9
2018-04-09T09:00:02.487Z,22.9
2018-04-09T09:10:01.907Z,22.9
2018-04-09T09:20:00.817Z,23.1
2018-04-09T09:29:59.948Z,23
2018-04-09T09:39:59.187Z,23.3
2018-04-09T09:49:58.968Z,23.5
2018-04-09T09:59:57.665Z,23
2018-04-09T10:09:56.642Z,23.2
2018-04-09T10:19:56.571Z,23.3
2018-04-09T10:29:55.272Z,23.3
2018-04-09T10:39:54.362Z,23.3
2018-04-09T10:49:53.786Z,23.1
2018-04-09T10:59:53.116Z,23
2018-04-09T11:09:52.575Z,22.9
2018-04-09T11:19:51.683Z,23.4
2018-04-09T11:29:50.627Z,23.7
2018-04-09T11:39:49.948Z,23.1
2018-04-09T11:49:49.024Z,23.2
2018-04-09T11:59:48.362Z,23.3
2018-04-09T12:09:47.305Z,22.9
2018-04-09T12:19:46.686Z,23.5
2018-04-09T12:29:46.294Z,22.9
2018-04-09T12:39:45.553Z,23.6
2018-04-09T12:49:44.319Z,23.4
2018-04-09T12:59:43.085Z,23.3
2018-04-09T13:09:43.008Z,23.1
2018-04-09T13:19:41.911Z,22.9
2018-04-09T13:29:40.874Z,23.1
2018-04-09T13:39:39.951Z,22.8
2018-04-09T13:49:39.568Z,22.6
2018-04-09T13:59:38.827Z,22.6
2018-04-09T14:09:38.181Z,22.4
2018-04-09T14:19:37.052Z,22.5
2018-04-09T15:00:21.440Z,22.3
2018-04-09T15:10:20.549Z,22.3
2018-04-09T15:20:19.475Z,22.1
2018-04-09T15:30:19.095Z,22
2018-04-09T15:40:18.165Z,21.9
2018-04-09T15:50:17.855Z,21.8
2018-04-09T16:00:17.201Z,21.7
2018-04-09T16:10:16.112Z,21.5
2018-04-09T16:20:15.137Z,21.3
2018-04-09T16:30:14.506Z,21.1
2018-04-09T16:40:13.507Z,20.9
2018-04-09T16:50:12.554Z,20.8
2018-04-09T17:00:11.929Z,20.8
2018-04-09T17:10:11.457Z,20.8
2018-04-09T17:20:10.607Z,20.8
2018-04-09T17:30:09.877Z,20.7
2018-04-09T17:40:08.520Z,20.7
2018-04-09T17:50:07.761Z,20.4
2018-04-09T18:00:07.028Z,19.7
2018-04-09T18:10:06.408Z,19.4
2018-04-09T18:20:06.185Z,19.9
2018-04-09T18:30:05.489Z,20.2
2018-04-09T18:40:04.373Z,20.4
2018-04-09T18:50:03.567Z,20.3
2018-04-09T19:00:03.064Z,20.4
2018-04-09T19:10:01.684Z,20.6
2018-04-09T19:20:01.170Z,20.8
2018-04-09T19:30:00.144Z,21.2
2018-04-09T19:39:59.346Z,21.4
2018-04-09T19:49:58.871Z,21.6
2018-04-09T19:59:57.841Z,21.6
2018-04-09T20:09:57.512Z,21.6
2018-04-09T20:19:56.499Z,21.6
2018-04-09T20:29:55.397Z,21.6
2018-04-09T20:39:54.719Z,21.6
2018-04-09T20:49:54.180Z,21.6
2018-04-09T20:59:53.058Z,21.6
2018-04-09T21:09:52.241Z,21.6
2018-04-09T21:19:51.300Z,21.6
2018-04-09T21:29:50.958Z,21.6
2018-04-09T21:39:49.622Z,21.6
2018-04-09T21:49:49.145Z,21.6
2018-04-09T21:59:48.298Z,21.6
2018-04-09T22:09:47.492Z,21.6
2018-04-09T22:19:46.741Z,21.6
2018-04-09T22:29:46.224Z,21.6
2018-04-09T22:39:45.548Z,21.5
2018-04-09T22:49:44.422Z,21.4
2018-04-09T22:59:43.553Z,21.4
2018-04-09T23:09:42.789Z,21.4
2018-04-09T23:19:42.096Z,21.4
2018-04-09T23:29:41.176Z,21.4
2018-04-09T23:39:40.683Z,21.4
2018-04-09T23:49:39.404Z,21.4
2018-04-09T23:59:39.091Z,21.4
